createdAt,value
2023-04-08T00:00:55.626Z,1.42
2023-04-08T00:03:22.315Z,1.15
2023-04-08T00:05:48.952Z,1.40
2023-04-08T00:08:15.629Z,1.08
2023-04-08T00:10:42.243Z,0.90
2023-04-08T00:13:08.811Z,1.20
2023-04-08T00:15:36.958Z,1.52
2023-04-08T00:18:03.586Z,1.33
2023-04-08T00:20:30.274Z,1.35
2023-04-08T00:22:56.803Z,0.95
2023-04-08T00:25:25.397Z,1.20
2023-04-08T00:27:52.529Z,1.00
2023-04-08T00:30:19.412Z,0.90
2023-04-08T00:32:46.685Z,1.40
2023-04-08T00:35:13.978Z,1.15
2023-04-08T00:37:41.331Z,1.20
2023-04-08T00:40:08.391Z,0.90
2023-04-08T00:42:35.015Z,1.40
2023-04-08T00:45:01.711Z,1.27
2023-04-08T00:47:28.294Z,1.40
2023-04-08T00:49:55.038Z,1.33
2023-04-08T00:52:21.599Z,1.40
2023-04-08T00:54:48.159Z,1.48
2023-04-08T00:57:15.366Z,0.85
2023-04-08T00:59:42.607Z,0.88
2023-04-08T01:02:35.696Z,1.02
2023-04-08T01:05:05.681Z,0.80
2023-04-08T01:07:37.547Z,0.98
2023-04-08T01:10:30.148Z,1.50
2023-04-08T01:12:59.282Z,1.00
2023-04-08T01:15:27.895Z,1.42
2023-04-08T01:17:56.670Z,1.60
2023-04-08T01:20:27.743Z,1.25
2023-04-08T01:23:00.138Z,0.93
2023-04-08T01:25:32.754Z,1.02
2023-04-08T01:28:21.232Z,1.20
2023-04-08T01:30:49.765Z,1.35
2023-04-08T01:33:18.491Z,1.15
2023-04-08T01:35:46.254Z,1.10
2023-04-08T01:38:16.480Z,1.10
2023-04-08T01:40:44.482Z,1.00
2023-04-08T01:43:14.902Z,1.15
2023-04-08T01:45:43.916Z,0.77
2023-04-08T01:48:12.476Z,1.10
2023-04-08T01:50:41.500Z,2.28
2023-04-08T01:53:10.065Z,1.33
2023-04-08T01:55:39.072Z,1.05
2023-04-08T01:58:07.689Z,1.58
2023-04-08T02:00:35.983Z,1.70
2023-04-08T02:03:05.892Z,1.15
2023-04-08T02:05:32.729Z,1.05
2023-04-08T02:07:59.337Z,1.15
2023-04-08T02:10:27.418Z,0.90
2023-04-08T02:12:55.547Z,0.93
2023-04-08T02:15:22.436Z,1.60
2023-04-08T02:18:00.704Z,0.95
2023-04-08T02:20:34.671Z,1.08
2023-04-08T02:23:14.597Z,1.20
2023-04-08T02:25:44.319Z,1.40
2023-04-08T02:28:12.107Z,1.30
2023-04-08T02:30:43.634Z,1.15
2023-04-08T02:33:12.317Z,0.80
2023-04-08T02:35:41.360Z,1.00
2023-04-08T02:38:10.238Z,0.82
2023-04-08T02:40:37.719Z,1.00
2023-04-08T02:43:04.354Z,1.92
2023-04-08T02:45:33.842Z,1.45
2023-04-08T02:48:01.489Z,1.15
2023-04-08T02:50:28.162Z,1.80
2023-04-08T02:52:55.039Z,1.45
2023-04-08T02:55:21.658Z,1.02
2023-04-08T02:57:48.901Z,1.40
2023-04-08T03:00:16.138Z,1.27
2023-04-08T03:02:42.796Z,1.10
2023-04-08T03:05:09.928Z,1.40
2023-04-08T03:07:36.605Z,1.30
2023-04-08T03:10:03.494Z,1.60
2023-04-08T03:12:30.006Z,1.38
2023-04-08T03:14:56.536Z,1.77
2023-04-08T03:17:23.242Z,1.42
2023-04-08T03:19:49.795Z,1.35
2023-04-08T03:22:16.383Z,1.60
2023-04-08T03:24:42.963Z,1.17
2023-04-08T03:27:09.551Z,1.02
2023-04-08T03:29:36.070Z,1.30
2023-04-08T03:32:02.941Z,1.30
2023-04-08T03:34:29.532Z,1.17
2023-04-08T03:36:56.047Z,1.50
2023-04-08T03:39:22.636Z,1.23
2023-04-08T03:41:49.154Z,1.27
2023-04-08T03:44:15.853Z,1.10
2023-04-08T03:46:42.399Z,1.85
2023-04-08T03:49:08.906Z,1.45
2023-04-08T03:51:35.424Z,0.95
2023-04-08T03:54:02.012Z,1.38
2023-04-08T03:56:28.643Z,1.67
2023-04-08T03:58:55.184Z,1.00
2023-04-08T04:01:21.706Z,1.73
2023-04-08T04:03:48.381Z,1.70
2023-04-08T04:06:15.280Z,1.30
2023-04-08T04:08:41.808Z,1.88
2023-04-08T04:11:08.310Z,1.70
2023-04-08T04:13:34.826Z,1.48
2023-04-08T04:16:01.387Z,1.30
2023-04-08T04:18:27.967Z,1.83
2023-04-08T04:20:54.564Z,1.50
2023-04-08T04:23:21.311Z,1.73
2023-04-08T04:25:47.839Z,1.60
2023-04-08T04:28:14.382Z,1.30
2023-04-08T04:30:41.047Z,1.40
2023-04-08T04:33:07.680Z,1.30
2023-04-08T04:35:34.561Z,1.25
2023-04-08T04:38:01.566Z,1.85
2023-04-08T04:40:28.189Z,1.08
2023-04-08T04:42:54.764Z,1.70
2023-04-08T04:45:21.282Z,1.63
2023-04-08T04:47:47.836Z,1.45
2023-04-08T04:50:14.386Z,1.52
2023-04-08T04:52:41.435Z,1.58
2023-04-08T04:55:08.403Z,1.77
2023-04-08T04:57:34.908Z,2.00
2023-04-08T05:00:03.896Z,1.27
2023-04-08T05:02:32.176Z,1.75
2023-04-08T05:04:58.865Z,1.50
2023-04-08T05:07:25.620Z,1.50
2023-04-08T05:09:52.197Z,1.85
2023-04-08T05:12:20.591Z,1.60
2023-04-08T05:14:47.171Z,1.45
2023-04-08T05:17:13.777Z,1.75
2023-04-08T05:19:40.417Z,2.47
2023-04-08T05:22:07.014Z,1.77
2023-04-08T05:24:33.526Z,1.40
2023-04-08T05:27:00.059Z,1.33
2023-04-08T05:29:27.478Z,1.92
2023-04-08T05:31:54.099Z,1.48
2023-04-08T05:34:23.040Z,1.48
2023-04-08T05:36:51.942Z,2.33
2023-04-08T05:39:19.342Z,2.15
2023-04-08T05:41:46.540Z,1.85
2023-04-08T05:44:16.734Z,1.48
2023-04-08T05:46:43.346Z,2.45
2023-04-08T05:49:09.992Z,1.95
2023-04-08T05:51:36.537Z,2.17
2023-04-08T05:54:03.152Z,1.98
2023-04-08T05:56:29.751Z,1.80
2023-04-08T05:58:56.343Z,2.30
2023-04-08T06:01:22.862Z,1.55
2023-04-08T06:03:49.665Z,1.35
2023-04-08T06:06:16.361Z,1.95
2023-04-08T06:08:42.872Z,1.50
2023-04-08T06:11:09.643Z,1.73
2023-04-08T06:13:37.168Z,1.52
2023-04-08T06:16:11.188Z,1.85
2023-04-08T06:18:38.018Z,1.42
2023-04-08T06:21:04.587Z,1.67
2023-04-08T06:23:31.136Z,1.60
2023-04-08T06:25:58.525Z,1.23
2023-04-08T06:28:25.251Z,1.58
2023-04-08T06:30:51.781Z,1.65
2023-04-08T06:33:18.316Z,1.90
2023-04-08T06:35:44.914Z,1.42
2023-04-08T06:38:11.471Z,2.08
2023-04-08T06:40:39.587Z,2.15
2023-04-08T06:43:07.772Z,1.60
2023-04-08T06:45:38.370Z,1.92
2023-04-08T06:48:06.678Z,2.10
2023-04-08T06:50:33.290Z,1.67
2023-04-08T06:53:00.360Z,2.33
2023-04-08T06:55:27.079Z,1.42
2023-04-08T06:57:53.637Z,2.13
2023-04-08T07:00:20.596Z,2.05
2023-04-08T07:02:47.353Z,1.70
2023-04-08T07:05:14.097Z,2.00
2023-04-08T07:07:40.816Z,2.10
2023-04-08T07:10:10.363Z,1.98
2023-04-08T07:12:37.520Z,2.00
2023-04-08T07:15:04.407Z,2.17
2023-04-08T07:17:30.966Z,2.00
2023-04-08T07:19:57.894Z,1.80
2023-04-08T07:22:24.414Z,1.88
2023-04-08T07:24:51.115Z,2.17
2023-04-08T07:27:17.662Z,1.95
2023-04-08T07:29:44.380Z,3.35
2023-04-08T07:32:11.180Z,2.38
2023-04-08T07:34:37.766Z,1.77
2023-04-08T07:37:04.270Z,2.70
2023-04-08T07:39:31.086Z,2.08
2023-04-08T07:41:57.639Z,2.13
2023-04-08T07:44:24.204Z,2.47
2023-04-08T07:46:51.788Z,2.33
2023-04-08T07:49:18.511Z,2.88
2023-04-08T07:51:45.027Z,2.60
2023-04-08T07:54:12.518Z,3.20
2023-04-08T07:56:40.407Z,2.63
2023-04-08T07:59:07.346Z,2.42
2023-04-08T08:01:35.684Z,2.67
2023-04-08T08:04:03.467Z,1.80
2023-04-08T08:06:32.320Z,2.58
2023-04-08T08:08:59.470Z,1.95
2023-04-08T08:11:29.295Z,2.53
2023-04-08T08:13:55.949Z,2.45
2023-04-08T08:16:22.825Z,2.33
2023-04-08T08:18:49.486Z,2.70
2023-04-08T08:21:16.021Z,2.15
2023-04-08T08:23:42.627Z,2.42
2023-04-08T08:26:10.530Z,1.95
2023-04-08T08:28:38.467Z,2.17
2023-04-08T08:31:06.123Z,2.10
2023-04-08T08:33:33.308Z,2.13
2023-04-08T08:36:00.072Z,2.15
2023-04-08T08:38:27.201Z,2.08
2023-04-08T08:40:56.206Z,1.80
2023-04-08T08:43:23.525Z,2.10
2023-04-08T08:45:50.125Z,2.30
2023-04-08T08:48:17.368Z,2.00
2023-04-08T08:50:44.216Z,2.35
2023-04-08T08:53:10.756Z,2.70
2023-04-08T08:56:05.753Z,2.35
2023-04-08T08:58:29.136Z,2.90
2023-04-08T09:00:55.882Z,2.65
2023-04-08T09:03:29.963Z,2.25
2023-04-08T09:05:58.873Z,2.80
2023-04-08T09:08:33.460Z,2.72
2023-04-08T09:11:16.310Z,2.65
2023-04-08T09:13:44.212Z,2.28
2023-04-08T09:16:12.850Z,2.10
2023-04-08T09:18:40.999Z,2.78
2023-04-08T09:21:07.576Z,2.15
2023-04-08T09:23:42.952Z,2.45
2023-04-08T09:26:12.963Z,2.22
2023-04-08T09:28:41.134Z,2.67
2023-04-08T09:31:28.693Z,2.30
2023-04-08T09:34:00.170Z,2.25
2023-04-08T09:36:27.429Z,2.83
2023-04-08T09:38:55.017Z,2.67
2023-04-08T09:41:23.600Z,2.38
2023-04-08T09:43:56.968Z,2.85
2023-04-08T09:46:37.696Z,3.25
2023-04-08T09:49:28.677Z,2.75
2023-04-08T09:52:08.618Z,2.00
2023-04-08T09:54:55.835Z,2.13
2023-04-08T09:57:33.408Z,2.38
2023-04-08T10:00:12.987Z,2.55
2023-04-08T10:03:04.892Z,1.65
2023-04-08T10:05:31.969Z,2.10
2023-04-08T10:07:59.092Z,2.25
2023-04-08T10:10:27.185Z,2.17
2023-04-08T10:12:54.172Z,2.33
2023-04-08T10:15:26.833Z,2.25
2023-04-08T10:17:55.115Z,3.05
2023-04-08T10:20:42.528Z,1.92
2023-04-08T10:23:11.362Z,2.17
2023-04-08T10:25:39.195Z,2.05
2023-04-08T10:28:11.837Z,2.35
2023-04-08T10:30:38.952Z,2.50
2023-04-08T10:33:13.618Z,1.98
2023-04-08T10:35:48.381Z,2.58
2023-04-08T10:38:16.705Z,2.25
2023-04-08T10:40:44.509Z,2.65
2023-04-08T10:43:13.297Z,2.58
2023-04-08T10:45:41.110Z,2.20
2023-04-08T10:48:24.674Z,2.50
2023-04-08T10:50:57.245Z,2.53
2023-04-08T10:53:27.227Z,2.85
2023-04-08T10:55:54.405Z,2.22
2023-04-08T10:58:21.823Z,2.15
2023-04-08T11:00:48.338Z,2.40
2023-04-08T11:03:15.803Z,2.08
2023-04-08T11:05:42.578Z,2.83
2023-04-08T11:08:09.163Z,2.08
2023-04-08T11:10:39.024Z,2.60
2023-04-08T11:13:09.784Z,2.15
2023-04-08T11:15:37.161Z,2.28
2023-04-08T11:18:05.493Z,2.03
2023-04-08T11:20:36.019Z,2.10
2023-04-08T11:23:03.475Z,2.50
2023-04-08T11:25:30.345Z,2.47
2023-04-08T11:27:57.009Z,2.83
2023-04-08T11:30:24.155Z,2.50
2023-04-08T11:32:52.156Z,1.80
2023-04-08T11:35:18.854Z,2.78
2023-04-08T11:37:47.574Z,3.03
2023-04-08T11:40:20.997Z,3.35
2023-04-08T11:42:47.861Z,2.58
2023-04-08T11:45:16.832Z,2.70
2023-04-08T11:47:44.253Z,2.65
2023-04-08T11:50:10.832Z,2.35
2023-04-08T11:52:45.424Z,2.45
2023-04-08T11:55:13.257Z,2.10
2023-04-08T11:57:39.856Z,2.45
2023-04-08T12:00:07.763Z,2.78
2023-04-08T12:02:37.454Z,2.85
2023-04-08T12:05:04.187Z,2.35
2023-04-08T12:07:30.783Z,2.33
2023-04-08T12:09:57.309Z,2.13
2023-04-08T12:12:23.970Z,3.17
2023-04-08T12:14:50.624Z,2.20
2023-04-08T12:17:17.190Z,2.72
2023-04-08T12:19:43.747Z,1.90
2023-04-08T12:22:10.315Z,2.85
2023-04-08T12:24:36.837Z,2.55
2023-04-08T12:27:04.970Z,1.98
2023-04-08T12:29:31.980Z,2.88
2023-04-08T12:31:58.912Z,3.10
2023-04-08T12:34:25.637Z,7.93
2023-04-08T12:36:52.197Z,3.08
2023-04-08T12:39:18.869Z,2.35
2023-04-08T12:41:45.426Z,3.15
2023-04-08T12:44:12.029Z,3.00
2023-04-08T12:46:38.533Z,2.65
2023-04-08T12:49:06.091Z,3.35
2023-04-08T12:51:33.354Z,2.83
2023-04-08T12:54:01.179Z,2.72
2023-04-08T12:56:27.760Z,2.08
2023-04-08T12:58:55.708Z,2.33
2023-04-08T13:01:22.290Z,2.92
2023-04-08T13:03:49.260Z,2.83
2023-04-08T13:06:16.651Z,3.15
2023-04-08T13:08:43.225Z,2.08
2023-04-08T13:11:09.764Z,2.22
2023-04-08T13:13:36.585Z,2.30
2023-04-08T13:16:03.193Z,2.70
2023-04-08T13:18:29.874Z,1.77
2023-04-08T13:20:57.991Z,2.75
2023-04-08T13:23:24.545Z,2.17
2023-04-08T13:25:51.410Z,1.90
2023-04-08T13:28:18.017Z,2.83
2023-04-08T13:30:44.570Z,1.73
2023-04-08T13:33:11.124Z,1.67
2023-04-08T13:35:37.687Z,2.35
2023-04-08T13:38:04.310Z,1.58
2023-04-08T13:40:31.753Z,1.98
2023-04-08T13:42:58.542Z,2.50
2023-04-08T13:45:25.218Z,2.05
2023-04-08T13:47:51.852Z,1.80
2023-04-08T13:50:18.452Z,1.38
2023-04-08T13:52:45.031Z,2.25
2023-04-08T13:55:11.563Z,1.73
2023-04-08T13:57:38.085Z,1.52
2023-04-08T14:00:05.087Z,2.20
2023-04-08T14:02:37.171Z,1.38
2023-04-08T14:05:04.408Z,2.17
2023-04-08T14:07:30.954Z,1.92
2023-04-08T14:09:57.489Z,2.20
2023-04-08T14:12:24.033Z,2.10
2023-04-08T14:14:50.587Z,1.63
2023-04-08T14:17:17.183Z,1.98
2023-04-08T14:19:43.757Z,1.25
2023-04-08T14:22:10.405Z,2.75
2023-04-08T14:24:36.924Z,1.83
2023-04-08T14:27:03.570Z,1.98
2023-04-08T14:29:30.337Z,2.80
2023-04-08T14:31:56.860Z,1.92
2023-04-08T14:34:24.035Z,2.47
2023-04-08T14:36:50.561Z,2.00
2023-04-08T14:39:17.082Z,2.55
2023-04-08T14:41:43.704Z,1.90
2023-04-08T14:44:10.409Z,1.70
2023-04-08T14:46:37.306Z,1.73
2023-04-08T14:49:04.085Z,2.08
2023-04-08T14:51:31.473Z,2.00
2023-04-08T14:53:58.029Z,2.83
2023-04-08T14:56:24.561Z,1.77
2023-04-08T14:58:51.348Z,2.55
2023-04-08T15:01:18.105Z,1.77
2023-04-08T15:03:44.782Z,1.42
2023-04-08T15:06:16.726Z,1.38
2023-04-08T15:08:43.896Z,1.77
2023-04-08T15:11:10.433Z,1.73
2023-04-08T15:13:36.929Z,1.73
2023-04-08T15:16:03.907Z,1.83
2023-04-08T15:18:30.683Z,2.05
2023-04-08T15:20:58.075Z,2.42
2023-04-08T15:23:24.652Z,2.40
2023-04-08T15:25:51.259Z,1.85
2023-04-08T15:28:17.775Z,2.42
2023-04-08T15:30:44.296Z,1.92
2023-04-08T15:33:10.843Z,2.47
2023-04-08T15:35:40.735Z,1.45
2023-04-08T15:38:07.775Z,1.40
2023-04-08T15:40:34.434Z,1.63
2023-04-08T15:43:01.513Z,2.03
2023-04-08T15:45:28.555Z,1.85
2023-04-08T15:47:55.574Z,2.15
2023-04-08T15:50:22.387Z,1.65
2023-04-08T15:52:49.384Z,1.65
2023-04-08T15:55:16.040Z,2.13
2023-04-08T15:57:42.591Z,2.47
2023-04-08T16:00:10.754Z,1.55
2023-04-08T16:02:40.631Z,2.10
2023-04-08T16:05:07.905Z,1.50
2023-04-08T16:07:34.469Z,2.50
2023-04-08T16:10:01.586Z,1.92
2023-04-08T16:12:28.758Z,1.83
2023-04-08T16:14:55.490Z,2.67
2023-04-08T16:17:22.108Z,2.22
2023-04-08T16:19:50.505Z,2.50
2023-04-08T16:22:17.350Z,1.83
2023-04-08T16:24:43.888Z,2.20
2023-04-08T16:27:10.565Z,1.55
2023-04-08T16:29:37.082Z,1.88
2023-04-08T16:32:04.617Z,1.92
2023-04-08T16:34:31.181Z,2.88
2023-04-08T16:36:57.736Z,1.88
2023-04-08T16:39:24.270Z,2.00
2023-04-08T16:41:51.388Z,2.65
2023-04-08T16:44:17.894Z,2.15
2023-04-08T16:46:44.443Z,1.75
2023-04-08T16:49:13.403Z,2.20
2023-04-08T16:51:41.115Z,2.53
2023-04-08T16:54:07.615Z,2.38
2023-04-08T16:56:34.191Z,2.45
2023-04-08T16:59:00.697Z,2.50
2023-04-08T17:01:27.248Z,2.60
2023-04-08T17:03:54.147Z,3.20
2023-04-08T17:06:20.946Z,2.60
2023-04-08T17:08:47.512Z,2.20
2023-04-08T17:11:15.559Z,1.70
2023-04-08T17:13:43.948Z,2.17
2023-04-08T17:16:15.650Z,1.95
2023-04-08T17:18:42.965Z,2.50
2023-04-08T17:21:09.987Z,2.30
2023-04-08T17:23:36.538Z,2.40
2023-04-08T17:26:09.991Z,1.75
2023-04-08T17:28:36.515Z,2.40
2023-04-08T17:31:03.125Z,2.45
2023-04-08T17:33:29.797Z,2.88
2023-04-08T17:35:56.428Z,2.65
2023-04-08T17:38:23.037Z,2.45
2023-04-08T17:40:49.592Z,2.97
2023-04-08T17:43:16.342Z,2.40
2023-04-08T17:45:42.950Z,2.10
2023-04-08T17:48:09.898Z,1.80
2023-04-08T17:50:36.669Z,2.00
2023-04-08T17:53:03.257Z,2.28
2023-04-08T17:55:29.812Z,2.35
2023-04-08T17:57:56.379Z,1.80
2023-04-08T18:00:22.942Z,1.65
2023-04-08T18:02:50.306Z,2.58
2023-04-08T18:05:16.965Z,2.45
2023-04-08T18:07:43.537Z,1.50
2023-04-08T18:10:10.122Z,2.47
2023-04-08T18:12:36.761Z,2.20
2023-04-08T18:15:03.566Z,2.00
2023-04-08T18:17:30.409Z,2.83
2023-04-08T18:19:58.434Z,2.92
2023-04-08T18:22:26.125Z,2.75
2023-04-08T18:24:52.702Z,2.45
2023-04-08T18:27:19.265Z,3.03
2023-04-08T18:29:45.918Z,2.38
2023-04-08T18:32:12.587Z,2.03
2023-04-08T18:34:39.101Z,2.38
2023-04-08T18:37:05.932Z,2.53
2023-04-08T18:39:32.542Z,2.20
2023-04-08T18:41:59.086Z,2.15
2023-04-08T18:44:25.759Z,2.92
2023-04-08T18:46:52.378Z,2.17
2023-04-08T18:49:18.932Z,2.92
2023-04-08T18:51:59.136Z,1.95
2023-04-08T18:54:28.801Z,2.03
2023-04-08T18:56:55.433Z,2.50
2023-04-08T18:59:22.137Z,2.55
2023-04-08T19:01:48.919Z,2.97
2023-04-08T19:04:16.536Z,2.30
2023-04-08T19:06:43.055Z,2.47
2023-04-08T19:09:09.712Z,2.85
2023-04-08T19:11:36.353Z,2.20
2023-04-08T19:14:02.844Z,2.50
2023-04-08T19:16:29.383Z,1.95
2023-04-08T19:18:56.080Z,2.92
2023-04-08T19:21:23.184Z,2.58
2023-04-08T19:23:50.018Z,2.35
2023-04-08T19:26:17.232Z,2.50
2023-04-08T19:28:43.842Z,3.08
2023-04-08T19:31:18.169Z,2.78
2023-04-08T19:33:44.916Z,3.00
2023-04-08T19:36:11.927Z,2.88
2023-04-08T19:38:38.784Z,2.00
2023-04-08T19:41:05.386Z,1.83
2023-04-08T19:43:31.894Z,2.25
2023-04-08T19:45:58.818Z,2.53
2023-04-08T19:48:26.015Z,2.08
2023-04-08T19:50:52.543Z,2.65
2023-04-08T19:53:19.066Z,2.53
2023-04-08T19:55:45.832Z,2.70
2023-04-08T19:58:12.396Z,2.20
2023-04-08T20:00:39.311Z,2.60
2023-04-08T20:03:06.331Z,2.30
2023-04-08T20:05:33.352Z,3.03
2023-04-08T20:07:59.932Z,2.03
2023-04-08T20:10:26.547Z,2.03
2023-04-08T20:12:53.726Z,2.55
2023-04-08T20:15:24.815Z,2.72
2023-04-08T20:17:52.983Z,2.33
2023-04-08T20:20:19.952Z,2.20
2023-04-08T20:22:46.581Z,2.42
2023-04-08T20:25:13.251Z,3.95
2023-04-08T20:27:39.861Z,2.00
2023-04-08T20:30:07.346Z,2.67
2023-04-08T20:32:34.666Z,2.10
2023-04-08T20:35:01.332Z,2.53
2023-04-08T20:37:28.666Z,2.80
2023-04-08T20:39:55.164Z,3.00
2023-04-08T20:42:21.721Z,2.35
2023-04-08T20:44:48.240Z,2.22
2023-04-08T20:47:15.502Z,2.85
2023-04-08T20:49:42.729Z,2.22
2023-04-08T20:52:09.333Z,2.30
2023-04-08T20:54:36.130Z,3.03
2023-04-08T20:57:02.705Z,2.60
2023-04-08T20:59:29.270Z,2.50
2023-04-08T21:01:55.824Z,2.47
2023-04-08T21:04:24.376Z,3.17
2023-04-08T21:06:51.437Z,2.55
2023-04-08T21:09:18.019Z,2.65
2023-04-08T21:11:44.755Z,2.67
2023-04-08T21:14:11.863Z,2.90
2023-04-08T21:16:38.396Z,3.03
2023-04-08T21:19:04.979Z,2.53
2023-04-08T21:21:32.098Z,2.80
2023-04-08T21:24:00.456Z,3.13
2023-04-08T21:26:27.604Z,2.85
2023-04-08T21:28:54.244Z,3.58
2023-04-08T21:31:21.008Z,3.60
2023-04-08T21:33:47.664Z,3.92
2023-04-08T21:36:14.248Z,3.97
2023-04-08T21:38:42.030Z,3.17
2023-04-08T21:41:08.546Z,4.00
2023-04-08T21:43:35.240Z,3.50
2023-04-08T21:46:01.876Z,3.33
2023-04-08T21:48:28.497Z,3.33
2023-04-08T21:50:55.255Z,3.30
2023-04-08T21:53:22.335Z,2.95
2023-04-08T21:55:48.850Z,2.95
2023-04-08T21:58:16.512Z,3.80
2023-04-08T22:00:43.059Z,3.47
2023-04-08T22:03:09.689Z,3.25
2023-04-08T22:05:36.786Z,2.50
2023-04-08T22:08:03.326Z,2.70
2023-04-08T22:10:29.878Z,3.35
2023-04-08T22:12:56.378Z,2.65
2023-04-08T22:15:22.992Z,2.80
2023-04-08T22:17:49.639Z,2.75
2023-04-08T22:20:16.233Z,2.88
2023-04-08T22:22:42.891Z,3.75
2023-04-08T22:25:09.670Z,4.28
2023-04-08T22:27:36.342Z,3.80
2023-04-08T22:30:02.907Z,4.05
2023-04-08T22:32:29.492Z,3.38
2023-04-08T22:34:56.324Z,3.03
2023-04-08T22:37:22.910Z,2.60
2023-04-08T22:39:49.422Z,2.80
2023-04-08T22:42:15.911Z,2.95
2023-04-08T22:44:42.500Z,2.88
2023-04-08T22:47:09.006Z,3.35
2023-04-08T22:49:35.594Z,2.22
2023-04-08T22:52:02.149Z,2.47
2023-04-08T22:54:28.645Z,2.25
2023-04-08T22:56:55.683Z,2.42
2023-04-08T22:59:22.202Z,1.90
2023-04-08T23:01:48.797Z,1.70
2023-04-08T23:04:15.445Z,1.88
2023-04-08T23:06:42.064Z,1.30
2023-04-08T23:09:08.568Z,1.73
2023-04-08T23:11:35.202Z,2.00
2023-04-08T23:14:01.713Z,1.58
2023-04-08T23:16:28.383Z,2.22
2023-04-08T23:18:55.053Z,2.13
2023-04-08T23:21:21.572Z,1.83
2023-04-08T23:23:48.203Z,1.95
2023-04-08T23:26:18.852Z,2.30
2023-04-08T23:28:45.664Z,2.00
2023-04-08T23:31:12.210Z,2.15
2023-04-08T23:33:39.084Z,2.28
2023-04-08T23:36:10.174Z,2.05
2023-04-08T23:38:39.610Z,1.73
2023-04-08T23:41:06.925Z,2.92
2023-04-08T23:43:33.899Z,2.30
2023-04-08T23:46:00.416Z,2.75
2023-04-08T23:48:26.983Z,2.40
2023-04-08T23:50:54.584Z,1.67
2023-04-08T23:53:21.696Z,2.58
2023-04-08T23:55:48.304Z,1.95
2023-04-08T23:58:14.813Z,2.25
